sensor_id;sensor_type;location;lat;lon;timestamp;P1;durP1;ratioP1;P2;durP2;ratioP2
36009;SDS011;22076;52.182;5.404;2023-03-15T00:00:02;2.45;;;0.80;;
36009;SDS011;22076;52.182;5.404;2023-03-15T00:02:31;2.25;;;0.93;;
36009;SDS011;22076;52.182;5.404;2023-03-15T00:04:58;4.38;;;0.93;;
36009;SDS011;22076;52.182;5.404;2023-03-15T00:07:25;3.20;;;0.80;;
36009;SDS011;22076;52.182;5.404;2023-03-15T00:09:51;1.10;;;0.63;;
36009;SDS011;22076;52.182;5.404;2023-03-15T00:12:18;0.98;;;0.77;;
36009;SDS011;22076;52.182;5.404;2023-03-15T00:14:47;1.05;;;0.80;;
36009;SDS011;22076;52.182;5.404;2023-03-15T00:17:13;1.08;;;0.80;;
36009;SDS011;22076;52.182;5.404;2023-03-15T00:19:41;1.63;;;0.80;;
36009;SDS011;22076;52.182;5.404;2023-03-15T00:22:08;1.58;;;1.00;;
36009;SDS011;22076;52.182;5.404;2023-03-15T00:24:36;3.80;;;1.08;;
36009;SDS011;22076;52.182;5.404;2023-03-15T00:27:02;2.60;;;0.90;;
36009;SDS011;22076;52.182;5.404;2023-03-15T00:29:30;1.38;;;0.90;;
36009;SDS011;22076;52.182;5.404;2023-03-15T00:31:56;3.88;;;1.10;;
36009;SDS011;22076;52.182;5.404;2023-03-15T00:34:23;2.55;;;1.10;;
36009;SDS011;22076;52.182;5.404;2023-03-15T00:36:52;1.38;;;1.10;;
36009;SDS011;22076;52.182;5.404;2023-03-15T00:39:18;2.95;;;1.10;;
36009;SDS011;22076;52.182;5.404;2023-03-15T00:41:45;2.35;;;1.15;;
36009;SDS011;22076;52.182;5.404;2023-03-15T00:44:11;3.53;;;1.15;;
36009;SDS011;22076;52.182;5.404;2023-03-15T00:46:38;4.05;;;1.27;;
36009;SDS011;22076;52.182;5.404;2023-03-15T00:49:05;2.03;;;1.35;;
36009;SDS011;22076;52.182;5.404;2023-03-15T00:51:32;2.72;;;1.23;;
36009;SDS011;22076;52.182;5.404;2023-03-15T00:54:00;2.58;;;1.08;;
36009;SDS011;22076;52.182;5.404;2023-03-15T00:56:27;2.28;;;1.25;;
36009;SDS011;22076;52.182;5.404;2023-03-15T00:58:54;5.93;;;1.38;;
36009;SDS011;22076;52.182;5.404;2023-03-15T01:01:21;3.88;;;0.80;;
36009;SDS011;22076;52.182;5.404;2023-03-15T01:03:49;3.00;;;1.10;;
36009;SDS011;22076;52.182;5.404;2023-03-15T01:06:16;2.30;;;1.48;;
36009;SDS011;22076;52.182;5.404;2023-03-15T01:08:44;3.15;;;1.40;;
36009;SDS011;22076;52.182;5.404;2023-03-15T01:11:13;5.93;;;1.20;;
36009;SDS011;22076;52.182;5.404;2023-03-15T01:13:40;4.22;;;1.77;;
36009;SDS011;22076;52.182;5.404;2023-03-15T01:16:07;2.28;;;1.25;;
36009;SDS011;22076;52.182;5.404;2023-03-15T01:18:35;2.08;;;1.20;;
36009;SDS011;22076;52.182;5.404;2023-03-15T01:21:05;4.07;;;1.50;;
36009;SDS011;22076;52.182;5.404;2023-03-15T01:23:31;2.75;;;1.40;;
36009;SDS011;22076;52.182;5.404;2023-03-15T01:25:58;2.30;;;1.40;;
36009;SDS011;22076;52.182;5.404;2023-03-15T01:28:27;3.15;;;1.30;;
36009;SDS011;22076;52.182;5.404;2023-03-15T01:30:53;5.53;;;1.13;;
36009;SDS011;22076;52.182;5.404;2023-03-15T01:33:20;4.38;;;1.30;;
36009;SDS011;22076;52.182;5.404;2023-03-15T01:35:47;1.70;;;1.23;;
36009;SDS011;22076;52.182;5.404;2023-03-15T01:38:14;2.30;;;1.60;;
36009;SDS011;22076;52.182;5.404;2023-03-15T01:40:43;3.10;;;1.67;;
36009;SDS011;22076;52.182;5.404;2023-03-15T01:43:13;5.32;;;1.45;;
36009;SDS011;22076;52.182;5.404;2023-03-15T01:48:48;5.78;;;1.65;;
36009;SDS011;22076;52.182;5.404;2023-03-15T01:51:19;5.50;;;1.90;;
36009;SDS011;22076;52.182;5.404;2023-03-15T01:53:49;6.47;;;1.58;;
36009;SDS011;22076;52.182;5.404;2023-03-15T01:56:18;1.85;;;1.20;;
36009;SDS011;22076;52.182;5.404;2023-03-15T01:58:45;4.18;;;1.38;;
36009;SDS011;22076;52.182;5.404;2023-03-15T02:01:13;2.67;;;1.58;;
36009;SDS011;22076;52.182;5.404;2023-03-15T02:03:44;5.32;;;2.15;;
36009;SDS011;22076;52.182;5.404;2023-03-15T02:06:14;4.38;;;1.70;;
36009;SDS011;22076;52.182;5.404;2023-03-15T02:08:43;3.97;;;1.92;;
36009;SDS011;22076;52.182;5.404;2023-03-15T02:11:11;1.63;;;1.50;;
36009;SDS011;22076;52.182;5.404;2023-03-15T02:13:39;4.07;;;1.38;;
36009;SDS011;22076;52.182;5.404;2023-03-15T02:16:06;3.95;;;1.40;;
36009;SDS011;22076;52.182;5.404;2023-03-15T02:18:33;2.50;;;1.55;;
36009;SDS011;22076;52.182;5.404;2023-03-15T02:21:07;4.38;;;2.03;;
36009;SDS011;22076;52.182;5.404;2023-03-15T02:23:40;2.58;;;1.73;;
36009;SDS011;22076;52.182;5.404;2023-03-15T02:26:10;8.15;;;1.90;;
36009;SDS011;22076;52.182;5.404;2023-03-15T02:28:43;5.93;;;2.15;;
36009;SDS011;22076;52.182;5.404;2023-03-15T02:31:10;2.90;;;1.77;;
36009;SDS011;22076;52.182;5.404;2023-03-15T02:33:38;7.43;;;1.73;;
36009;SDS011;22076;52.182;5.404;2023-03-15T02:36:08;5.28;;;1.73;;
36009;SDS011;22076;52.182;5.404;2023-03-15T02:38:37;5.20;;;1.45;;
36009;SDS011;22076;52.182;5.404;2023-03-15T02:41:04;4.82;;;2.00;;
36009;SDS011;22076;52.182;5.404;2023-03-15T02:43:31;3.05;;;1.85;;
36009;SDS011;22076;52.182;5.404;2023-03-15T02:45:59;4.25;;;1.98;;
36009;SDS011;22076;52.182;5.404;2023-03-15T02:48:27;3.75;;;1.73;;
36009;SDS011;22076;52.182;5.404;2023-03-15T02:50:54;6.22;;;2.25;;
36009;SDS011;22076;52.182;5.404;2023-03-15T02:53:21;5.15;;;1.60;;
36009;SDS011;22076;52.182;5.404;2023-03-15T02:55:47;4.43;;;1.27;;
36009;SDS011;22076;52.182;5.404;2023-03-15T02:58:15;4.40;;;1.55;;
36009;SDS011;22076;52.182;5.404;2023-03-15T03:00:42;4.63;;;1.65;;
36009;SDS011;22076;52.182;5.404;2023-03-15T03:03:10;2.45;;;1.60;;
36009;SDS011;22076;52.182;5.404;2023-03-15T03:05:36;7.13;;;1.88;;
36009;SDS011;22076;52.182;5.404;2023-03-15T03:08:03;3.08;;;1.70;;
36009;SDS011;22076;52.182;5.404;2023-03-15T03:10:30;4.28;;;2.17;;
36009;SDS011;22076;52.182;5.404;2023-03-15T03:12:57;7.43;;;2.63;;
36009;SDS011;22076;52.182;5.404;2023-03-15T03:15:23;9.65;;;1.88;;
36009;SDS011;22076;52.182;5.404;2023-03-15T03:17:50;5.65;;;1.98;;
36009;SDS011;22076;52.182;5.404;2023-03-15T03:20:19;6.95;;;1.92;;
36009;SDS011;22076;52.182;5.404;2023-03-15T03:22:46;7.07;;;1.80;;
36009;SDS011;22076;52.182;5.404;2023-03-15T03:25:13;4.20;;;2.30;;
36009;SDS011;22076;52.182;5.404;2023-03-15T03:27:39;4.05;;;2.10;;
36009;SDS011;22076;52.182;5.404;2023-03-15T03:30:08;7.10;;;1.50;;
36009;SDS011;22076;52.182;5.404;2023-03-15T03:32:36;2.88;;;1.80;;
36009;SDS011;22076;52.182;5.404;2023-03-15T03:35:03;3.90;;;1.70;;
36009;SDS011;22076;52.182;5.404;2023-03-15T03:37:31;2.42;;;1.77;;
36009;SDS011;22076;52.182;5.404;2023-03-15T03:39:59;5.57;;;1.30;;
36009;SDS011;22076;52.182;5.404;2023-03-15T03:42:26;2.42;;;1.38;;
36009;SDS011;22076;52.182;5.404;2023-03-15T03:44:53;5.70;;;1.67;;
36009;SDS011;22076;52.182;5.404;2023-03-15T03:47:19;9.52;;;1.90;;
36009;SDS011;22076;52.182;5.404;2023-03-15T03:49:46;3.80;;;1.98;;
36009;SDS011;22076;52.182;5.404;2023-03-15T03:52:12;4.38;;;1.30;;
36009;SDS011;22076;52.182;5.404;2023-03-15T03:54:40;4.18;;;1.40;;
36009;SDS011;22076;52.182;5.404;2023-03-15T03:57:07;3.42;;;1.40;;
36009;SDS011;22076;52.182;5.404;2023-03-15T03:59:34;4.30;;;1.70;;
36009;SDS011;22076;52.182;5.404;2023-03-15T04:02:01;5.28;;;1.60;;
36009;SDS011;22076;52.182;5.404;2023-03-15T04:04:28;3.28;;;1.80;;
36009;SDS011;22076;52.182;5.404;2023-03-15T04:06:54;4.75;;;1.73;;
36009;SDS011;22076;52.182;5.404;2023-03-15T04:09:21;3.75;;;1.48;;
36009;SDS011;22076;52.182;5.404;2023-03-15T04:11:50;5.07;;;1.60;;
36009;SDS011;22076;52.182;5.404;2023-03-15T04:14:17;6.55;;;2.10;;
36009;SDS011;22076;52.182;5.404;2023-03-15T04:16:43;5.32;;;1.75;;
36009;SDS011;22076;52.182;5.404;2023-03-15T04:19:10;11.35;;;2.45;;
36009;SDS011;22076;52.182;5.404;2023-03-15T04:21:37;4.80;;;1.77;;
36009;SDS011;22076;52.182;5.404;2023-03-15T04:24:11;7.80;;;1.95;;
36009;SDS011;22076;52.182;5.404;2023-03-15T04:26:37;9.43;;;2.20;;
36009;SDS011;22076;52.182;5.404;2023-03-15T04:29:07;5.28;;;1.90;;
36009;SDS011;22076;52.182;5.404;2023-03-15T04:31:35;3.83;;;1.85;;
36009;SDS011;22076;52.182;5.404;2023-03-15T04:34:02;3.25;;;1.98;;
36009;SDS011;22076;52.182;5.404;2023-03-15T04:36:29;7.40;;;2.22;;
36009;SDS011;22076;52.182;5.404;2023-03-15T04:38:56;6.18;;;1.63;;
36009;SDS011;22076;52.182;5.404;2023-03-15T04:41:30;4.07;;;1.98;;
36009;SDS011;22076;52.182;5.404;2023-03-15T04:43:58;6.20;;;2.60;;
36009;SDS011;22076;52.182;5.404;2023-03-15T04:46:26;3.72;;;1.75;;
36009;SDS011;22076;52.182;5.404;2023-03-15T04:48:53;2.35;;;1.55;;
36009;SDS011;22076;52.182;5.404;2023-03-15T04:51:19;6.50;;;2.42;;
36009;SDS011;22076;52.182;5.404;2023-03-15T04:53:46;4.45;;;2.60;;
36009;SDS011;22076;52.182;5.404;2023-03-15T04:56:12;7.78;;;2.65;;
36009;SDS011;22076;52.182;5.404;2023-03-15T04:58:39;6.22;;;2.60;;
36009;SDS011;22076;52.182;5.404;2023-03-15T05:01:06;5.15;;;2.22;;
36009;SDS011;22076;52.182;5.404;2023-03-15T05:03:34;7.88;;;2.95;;
36009;SDS011;22076;52.182;5.404;2023-03-15T05:06:00;4.03;;;2.00;;
36009;SDS011;22076;52.182;5.404;2023-03-15T05:08:32;4.50;;;1.65;;
36009;SDS011;22076;52.182;5.404;2023-03-15T05:11:00;3.90;;;1.92;;
36009;SDS011;22076;52.182;5.404;2023-03-15T05:13:26;5.53;;;2.33;;
36009;SDS011;22076;52.182;5.404;2023-03-15T05:15:53;7.20;;;2.67;;
36009;SDS011;22076;52.182;5.404;2023-03-15T05:18:20;7.95;;;2.95;;
36009;SDS011;22076;52.182;5.404;2023-03-15T05:20:48;4.05;;;2.08;;
36009;SDS011;22076;52.182;5.404;2023-03-15T05:23:15;9.07;;;2.22;;
36009;SDS011;22076;52.182;5.404;2023-03-15T05:25:41;6.20;;;2.40;;
36009;SDS011;22076;52.182;5.404;2023-03-15T05:28:08;6.25;;;2.53;;
36009;SDS011;22076;52.182;5.404;2023-03-15T05:30:34;8.18;;;2.22;;
36009;SDS011;22076;52.182;5.404;2023-03-15T05:33:01;8.52;;;2.85;;
36009;SDS011;22076;52.182;5.404;2023-03-15T05:35:29;8.80;;;2.42;;
36009;SDS011;22076;52.182;5.404;2023-03-15T05:37:57;6.80;;;2.28;;
36009;SDS011;22076;52.182;5.404;2023-03-15T05:40:23;8.02;;;2.25;;
36009;SDS011;22076;52.182;5.404;2023-03-15T05:42:50;4.78;;;2.45;;
36009;SDS011;22076;52.182;5.404;2023-03-15T05:45:16;7.47;;;2.17;;
36009;SDS011;22076;52.182;5.404;2023-03-15T05:47:43;6.57;;;2.05;;
36009;SDS011;22076;52.182;5.404;2023-03-15T05:50:10;5.53;;;2.30;;
36009;SDS011;22076;52.182;5.404;2023-03-15T05:52:36;9.70;;;3.08;;
36009;SDS011;22076;52.182;5.404;2023-03-15T05:55:05;4.55;;;1.45;;
36009;SDS011;22076;52.182;5.404;2023-03-15T05:57:31;9.65;;;3.13;;
36009;SDS011;22076;52.182;5.404;2023-03-15T05:59:58;5.53;;;2.10;;
36009;SDS011;22076;52.182;5.404;2023-03-15T06:02:25;7.30;;;2.42;;
36009;SDS011;22076;52.182;5.404;2023-03-15T06:04:51;12.20;;;3.00;;
36009;SDS011;22076;52.182;5.404;2023-03-15T06:07:18;7.13;;;2.08;;
36009;SDS011;22076;52.182;5.404;2023-03-15T06:09:45;7.80;;;2.13;;
36009;SDS011;22076;52.182;5.404;2023-03-15T06:12:13;6.47;;;2.03;;
36009;SDS011;22076;52.182;5.404;2023-03-15T06:14:40;6.10;;;1.65;;
36009;SDS011;22076;52.182;5.404;2023-03-15T06:17:06;11.55;;;2.47;;
36009;SDS011;22076;52.182;5.404;2023-03-15T06:19:33;6.45;;;2.50;;
36009;SDS011;22076;52.182;5.404;2023-03-15T06:21:59;6.65;;;1.83;;
36009;SDS011;22076;52.182;5.404;2023-03-15T06:24:27;5.40;;;2.22;;
36009;SDS011;22076;52.182;5.404;2023-03-15T06:26:54;7.13;;;2.10;;
36009;SDS011;22076;52.182;5.404;2023-03-15T06:29:22;4.72;;;2.00;;
36009;SDS011;22076;52.182;5.404;2023-03-15T06:31:49;7.85;;;2.83;;
36009;SDS011;22076;52.182;5.404;2023-03-15T06:34:16;8.05;;;2.78;;
36009;SDS011;22076;52.182;5.404;2023-03-15T06:36:43;9.02;;;2.25;;
36009;SDS011;22076;52.182;5.404;2023-03-15T06:39:10;8.20;;;2.90;;
36009;SDS011;22076;52.182;5.404;2023-03-15T06:41:38;6.25;;;1.98;;
36009;SDS011;22076;52.182;5.404;2023-03-15T06:44:06;7.38;;;3.15;;
36009;SDS011;22076;52.182;5.404;2023-03-15T06:46:35;13.20;;;3.22;;
36009;SDS011;22076;52.182;5.404;2023-03-15T06:49:02;4.35;;;2.33;;
36009;SDS011;22076;52.182;5.404;2023-03-15T06:51:29;5.72;;;2.50;;
36009;SDS011;22076;52.182;5.404;2023-03-15T06:53:57;7.13;;;2.50;;
36009;SDS011;22076;52.182;5.404;2023-03-15T06:56:24;8.77;;;2.30;;
36009;SDS011;22076;52.182;5.404;2023-03-15T06:58:51;11.70;;;2.80;;
36009;SDS011;22076;52.182;5.404;2023-03-15T07:01:17;7.38;;;2.40;;
36009;SDS011;22076;52.182;5.404;2023-03-15T07:03:45;4.45;;;2.08;;
36009;SDS011;22076;52.182;5.404;2023-03-15T07:06:12;7.85;;;2.45;;
36009;SDS011;22076;52.182;5.404;2023-03-15T07:08:38;10.02;;;2.60;;
36009;SDS011;22076;52.182;5.404;2023-03-15T07:11:05;4.85;;;2.72;;
36009;SDS011;22076;52.182;5.404;2023-03-15T07:13:31;6.38;;;2.20;;
36009;SDS011;22076;52.182;5.404;2023-03-15T07:15:58;3.70;;;1.98;;
36009;SDS011;22076;52.182;5.404;2023-03-15T07:18:25;5.05;;;2.53;;
36009;SDS011;22076;52.182;5.404;2023-03-15T07:20:56;8.35;;;2.47;;
36009;SDS011;22076;52.182;5.404;2023-03-15T07:23:23;8.43;;;2.60;;
36009;SDS011;22076;52.182;5.404;2023-03-15T07:25:50;6.93;;;2.90;;
36009;SDS011;22076;52.182;5.404;2023-03-15T07:28:16;4.68;;;1.95;;
36009;SDS011;22076;52.182;5.404;2023-03-15T07:30:50;8.98;;;2.28;;
36009;SDS011;22076;52.182;5.404;2023-03-15T07:33:18;8.90;;;2.15;;
36009;SDS011;22076;52.182;5.404;2023-03-15T07:35:46;11.07;;;2.30;;
36009;SDS011;22076;52.182;5.404;2023-03-15T07:38:14;9.38;;;2.20;;
36009;SDS011;22076;52.182;5.404;2023-03-15T07:40:41;9.95;;;2.70;;
36009;SDS011;22076;52.182;5.404;2023-03-15T07:43:07;11.75;;;2.33;;
36009;SDS011;22076;52.182;5.404;2023-03-15T07:45:34;5.28;;;1.92;;
36009;SDS011;22076;52.182;5.404;2023-03-15T07:48:00;3.97;;;1.55;;
36009;SDS011;22076;52.182;5.404;2023-03-15T07:50:27;4.50;;;1.52;;
36009;SDS011;22076;52.182;5.404;2023-03-15T07:52:55;8.30;;;1.92;;
36009;SDS011;22076;52.182;5.404;2023-03-15T07:55:23;4.18;;;1.85;;
36009;SDS011;22076;52.182;5.404;2023-03-15T07:57:50;5.57;;;1.45;;
36009;SDS011;22076;52.182;5.404;2023-03-15T08:00:17;7.85;;;1.60;;
36009;SDS011;22076;52.182;5.404;2023-03-15T08:02:47;9.73;;;2.15;;
36009;SDS011;22076;52.182;5.404;2023-03-15T08:05:13;4.28;;;1.73;;
36009;SDS011;22076;52.182;5.404;2023-03-15T08:07:43;5.38;;;1.65;;
36009;SDS011;22076;52.182;5.404;2023-03-15T08:10:10;6.30;;;2.35;;
36009;SDS011;22076;52.182;5.404;2023-03-15T08:12:39;12.10;;;2.30;;
36009;SDS011;22076;52.182;5.404;2023-03-15T08:15:08;10.30;;;2.38;;
36009;SDS011;22076;52.182;5.404;2023-03-15T08:17:36;4.55;;;1.80;;
36009;SDS011;22076;52.182;5.404;2023-03-15T08:20:03;11.27;;;3.22;;
36009;SDS011;22076;52.182;5.404;2023-03-15T08:22:30;13.10;;;3.45;;
36009;SDS011;22076;52.182;5.404;2023-03-15T08:24:57;8.05;;;2.75;;
36009;SDS011;22076;52.182;5.404;2023-03-15T08:27:25;5.97;;;2.03;;
36009;SDS011;22076;52.182;5.404;2023-03-15T08:29:53;6.93;;;1.95;;
36009;SDS011;22076;52.182;5.404;2023-03-15T08:32:19;12.10;;;2.58;;
36009;SDS011;22076;52.182;5.404;2023-03-15T08:34:46;7.30;;;2.40;;
36009;SDS011;22076;52.182;5.404;2023-03-15T08:37:13;4.90;;;1.85;;
36009;SDS011;22076;52.182;5.404;2023-03-15T08:39:39;8.70;;;2.35;;
36009;SDS011;22076;52.182;5.404;2023-03-15T08:42:06;4.53;;;1.77;;
36009;SDS011;22076;52.182;5.404;2023-03-15T08:44:35;9.05;;;2.00;;
36009;SDS011;22076;52.182;5.404;2023-03-15T08:47:03;5.93;;;1.65;;
36009;SDS011;22076;52.182;5.404;2023-03-15T08:49:30;9.98;;;2.25;;
36009;SDS011;22076;52.182;5.404;2023-03-15T08:51:57;7.70;;;2.53;;
36009;SDS011;22076;52.182;5.404;2023-03-15T08:54:24;14.35;;;2.00;;
36009;SDS011;22076;52.182;5.404;2023-03-15T08:56:51;6.80;;;1.58;;
36009;SDS011;22076;52.182;5.404;2023-03-15T08:59:18;4.82;;;1.67;;
36009;SDS011;22076;52.182;5.404;2023-03-15T09:01:45;5.60;;;1.63;;
36009;SDS011;22076;52.182;5.404;2023-03-15T09:04:12;8.07;;;2.25;;
36009;SDS011;22076;52.182;5.404;2023-03-15T09:06:39;5.78;;;1.80;;
36009;SDS011;22076;52.182;5.404;2023-03-15T09:09:06;7.65;;;1.95;;
36009;SDS011;22076;52.182;5.404;2023-03-15T09:11:33;8.35;;;1.55;;
36009;SDS011;22076;52.182;5.404;2023-03-15T09:14:00;10.88;;;1.65;;
36009;SDS011;22076;52.182;5.404;2023-03-15T09:16:27;7.32;;;1.73;;
36009;SDS011;22076;52.182;5.404;2023-03-15T09:18:53;6.53;;;1.67;;
36009;SDS011;22076;52.182;5.404;2023-03-15T09:21:21;8.57;;;1.85;;
36009;SDS011;22076;52.182;5.404;2023-03-15T09:23:49;4.78;;;1.35;;
36009;SDS011;22076;52.182;5.404;2023-03-15T09:26:15;4.72;;;1.90;;
36009;SDS011;22076;52.182;5.404;2023-03-15T09:28:42;8.35;;;1.60;;
36009;SDS011;22076;52.182;5.404;2023-03-15T09:31:08;5.97;;;1.98;;
36009;SDS011;22076;52.182;5.404;2023-03-15T09:33:35;10.80;;;2.03;;
36009;SDS011;22076;52.182;5.404;2023-03-15T09:36:02;3.65;;;1.52;;
36009;SDS011;22076;52.182;5.404;2023-03-15T09:38:31;4.88;;;1.38;;
36009;SDS011;22076;52.182;5.404;2023-03-15T09:40:58;6.45;;;1.42;;
36009;SDS011;22076;52.182;5.404;2023-03-15T09:43:38;6.72;;;1.38;;
36009;SDS011;22076;52.182;5.404;2023-03-15T09:46:15;7.78;;;1.10;;
36009;SDS011;22076;52.182;5.404;2023-03-15T09:48:49;6.70;;;0.93;;
36009;SDS011;22076;52.182;5.404;2023-03-15T09:51:20;8.30;;;1.35;;
36009;SDS011;22076;52.182;5.404;2023-03-15T09:53:56;4.82;;;1.52;;
36009;SDS011;22076;52.182;5.404;2023-03-15T09:56:26;5.90;;;1.20;;
36009;SDS011;22076;52.182;5.404;2023-03-15T09:58:55;4.28;;;1.00;;
36009;SDS011;22076;52.182;5.404;2023-03-15T10:01:24;8.45;;;1.30;;
36009;SDS011;22076;52.182;5.404;2023-03-15T10:03:54;10.55;;;1.63;;
36009;SDS011;22076;52.182;5.404;2023-03-15T10:06:22;5.07;;;1.33;;
36009;SDS011;22076;52.182;5.404;2023-03-15T10:08:53;5.13;;;0.85;;
36009;SDS011;22076;52.182;5.404;2023-03-15T10:11:24;8.15;;;1.40;;
36009;SDS011;22076;52.182;5.404;2023-03-15T10:13:58;5.45;;;1.40;;
36009;SDS011;22076;52.182;5.404;2023-03-15T10:16:38;2.65;;;0.90;;
36009;SDS011;22076;52.182;5.404;2023-03-15T10:19:12;3.05;;;1.15;;
36009;SDS011;22076;52.182;5.404;2023-03-15T10:21:44;6.78;;;1.45;;
36009;SDS011;22076;52.182;5.404;2023-03-15T10:24:17;2.30;;;0.82;;
36009;SDS011;22076;52.182;5.404;2023-03-15T10:26:46;11.20;;;1.70;;
36009;SDS011;22076;52.182;5.404;2023-03-15T10:29:14;7.07;;;1.20;;
36009;SDS011;22076;52.182;5.404;2023-03-15T10:31:44;5.10;;;1.50;;
36009;SDS011;22076;52.182;5.404;2023-03-15T10:34:12;3.88;;;0.90;;
36009;SDS011;22076;52.182;5.404;2023-03-15T10:36:43;9.07;;;1.75;;
36009;SDS011;22076;52.182;5.404;2023-03-15T10:39:11;3.85;;;1.10;;
36009;SDS011;22076;52.182;5.404;2023-03-15T10:41:39;4.30;;;1.10;;
36009;SDS011;22076;52.182;5.404;2023-03-15T10:44:11;4.53;;;1.20;;
36009;SDS011;22076;52.182;5.404;2023-03-15T10:46:39;6.05;;;1.08;;
36009;SDS011;22076;52.182;5.404;2023-03-15T10:49:10;6.55;;;0.98;;
36009;SDS011;22076;52.182;5.404;2023-03-15T10:51:38;2.05;;;1.27;;
36009;SDS011;22076;52.182;5.404;2023-03-15T10:54:10;5.80;;;1.33;;
36009;SDS011;22076;52.182;5.404;2023-03-15T10:56:41;5.80;;;1.08;;
36009;SDS011;22076;52.182;5.404;2023-03-15T10:59:15;6.35;;;1.20;;
36009;SDS011;22076;52.182;5.404;2023-03-15T11:01:43;4.85;;;1.38;;
36009;SDS011;22076;52.182;5.404;2023-03-15T11:04:13;2.75;;;1.00;;
36009;SDS011;22076;52.182;5.404;2023-03-15T11:06:43;2.65;;;0.75;;
36009;SDS011;22076;52.182;5.404;2023-03-15T11:09:12;4.72;;;1.05;;
36009;SDS011;22076;52.182;5.404;2023-03-15T11:11:53;4.28;;;0.90;;
36009;SDS011;22076;52.182;5.404;2023-03-15T11:14:24;6.47;;;1.48;;
36009;SDS011;22076;52.182;5.404;2023-03-15T11:16:52;4.38;;;1.33;;
36009;SDS011;22076;52.182;5.404;2023-03-15T11:19:21;4.07;;;0.82;;
36009;SDS011;22076;52.182;5.404;2023-03-15T11:21:50;5.53;;;1.10;;
36009;SDS011;22076;52.182;5.404;2023-03-15T11:24:19;2.75;;;1.17;;
36009;SDS011;22076;52.182;5.404;2023-03-15T11:26:49;4.00;;;1.08;;
36009;SDS011;22076;52.182;5.404;2023-03-15T11:29:20;3.50;;;1.38;;
36009;SDS011;22076;52.182;5.404;2023-03-15T11:31:49;6.00;;;1.13;;
36009;SDS011;22076;52.182;5.404;2023-03-15T11:34:19;4.03;;;1.05;;
36009;SDS011;22076;52.182;5.404;2023-03-15T11:36:51;2.67;;;0.90;;
36009;SDS011;22076;52.182;5.404;2023-03-15T11:39:23;6.35;;;1.20;;
36009;SDS011;22076;52.182;5.404;2023-03-15T11:41:55;4.22;;;1.20;;
36009;SDS011;22076;52.182;5.404;2023-03-15T11:44:26;6.75;;;1.10;;
36009;SDS011;22076;52.182;5.404;2023-03-15T11:46:58;5.18;;;0.98;;
36009;SDS011;22076;52.182;5.404;2023-03-15T11:49:30;5.28;;;1.30;;
36009;SDS011;22076;52.182;5.404;2023-03-15T11:52:01;5.47;;;0.88;;
36009;SDS011;22076;52.182;5.404;2023-03-15T11:54:28;6.35;;;1.23;;
36009;SDS011;22076;52.182;5.404;2023-03-15T11:56:56;6.30;;;1.38;;
36009;SDS011;22076;52.182;5.404;2023-03-15T11:59:28;2.03;;;1.02;;
36009;SDS011;22076;52.182;5.404;2023-03-15T12:01:58;4.50;;;0.77;;
36009;SDS011;22076;52.182;5.404;2023-03-15T12:04:29;5.43;;;1.10;;
36009;SDS011;22076;52.182;5.404;2023-03-15T12:07:03;6.57;;;1.15;;
36009;SDS011;22076;52.182;5.404;2023-03-15T12:12:42;2.22;;;0.90;;
36009;SDS011;22076;52.182;5.404;2023-03-15T12:18:17;6.95;;;1.13;;
36009;SDS011;22076;52.182;5.404;2023-03-15T12:20:56;2.45;;;0.88;;
36009;SDS011;22076;52.182;5.404;2023-03-15T12:23:33;4.28;;;0.90;;
36009;SDS011;22076;52.182;5.404;2023-03-15T12:26:07;2.72;;;0.98;;
36009;SDS011;22076;52.182;5.404;2023-03-15T12:28:36;3.33;;;1.00;;
36009;SDS011;22076;52.182;5.404;2023-03-15T12:31:05;4.55;;;1.23;;
36009;SDS011;22076;52.182;5.404;2023-03-15T12:33:43;2.22;;;0.82;;
36009;SDS011;22076;52.182;5.404;2023-03-15T12:36:15;4.47;;;1.00;;
36009;SDS011;22076;52.182;5.404;2023-03-15T12:38:52;3.72;;;1.23;;
36009;SDS011;22076;52.182;5.404;2023-03-15T12:41:33;4.22;;;1.00;;
36009;SDS011;22076;52.182;5.404;2023-03-15T12:44:17;3.00;;;0.88;;
36009;SDS011;22076;52.182;5.404;2023-03-15T12:46:52;3.83;;;0.85;;
36009;SDS011;22076;52.182;5.404;2023-03-15T12:49:35;3.17;;;0.88;;
36009;SDS011;22076;52.182;5.404;2023-03-15T12:52:04;6.85;;;1.33;;
36009;SDS011;22076;52.182;5.404;2023-03-15T12:54:40;5.32;;;0.80;;
36009;SDS011;22076;52.182;5.404;2023-03-15T12:57:09;3.67;;;1.05;;
36009;SDS011;22076;52.182;5.404;2023-03-15T12:59:38;3.15;;;0.98;;
36009;SDS011;22076;52.182;5.404;2023-03-15T13:02:22;1.85;;;1.10;;
36009;SDS011;22076;52.182;5.404;2023-03-15T13:04:58;3.78;;;1.45;;
36009;SDS011;22076;52.182;5.404;2023-03-15T13:07:26;6.32;;;0.80;;
36009;SDS011;22076;52.182;5.404;2023-03-15T13:10:22;2.83;;;0.75;;
36009;SDS011;22076;52.182;5.404;2023-03-15T13:12:56;1.95;;;0.80;;
36009;SDS011;22076;52.182;5.404;2023-03-15T13:15:27;4.77;;;1.10;;
36009;SDS011;22076;52.182;5.404;2023-03-15T13:17:57;4.88;;;1.15;;
36009;SDS011;22076;52.182;5.404;2023-03-15T13:20:44;4.45;;;1.40;;
36009;SDS011;22076;52.182;5.404;2023-03-15T13:25:53;4.88;;;1.05;;
36009;SDS011;22076;52.182;5.404;2023-03-15T13:28:29;4.38;;;1.10;;
36009;SDS011;22076;52.182;5.404;2023-03-15T13:31:01;3.95;;;1.27;;
36009;SDS011;22076;52.182;5.404;2023-03-15T13:33:36;2.95;;;0.73;;
36009;SDS011;22076;52.182;5.404;2023-03-15T13:36:09;3.80;;;1.00;;
36009;SDS011;22076;52.182;5.404;2023-03-15T13:38:38;4.70;;;1.10;;
36009;SDS011;22076;52.182;5.404;2023-03-15T13:41:14;4.03;;;0.95;;
36009;SDS011;22076;52.182;5.404;2023-03-15T13:43:43;4.40;;;1.15;;
36009;SDS011;22076;52.182;5.404;2023-03-15T13:46:10;1.83;;;0.90;;
36009;SDS011;22076;52.182;5.404;2023-03-15T13:48:39;5.78;;;1.13;;
36009;SDS011;22076;52.182;5.404;2023-03-15T13:51:11;5.50;;;1.00;;
36009;SDS011;22076;52.182;5.404;2023-03-15T13:53:44;6.63;;;1.25;;
36009;SDS011;22076;52.182;5.404;2023-03-15T13:56:13;3.88;;;1.33;;
36009;SDS011;22076;52.182;5.404;2023-03-15T13:58:41;5.35;;;1.25;;
36009;SDS011;22076;52.182;5.404;2023-03-15T14:01:09;6.03;;;1.17;;
36009;SDS011;22076;52.182;5.404;2023-03-15T14:03:37;5.68;;;1.17;;
36009;SDS011;22076;52.182;5.404;2023-03-15T14:06:08;2.30;;;0.75;;
36009;SDS011;22076;52.182;5.404;2023-03-15T14:08:39;3.53;;;1.17;;
36009;SDS011;22076;52.182;5.404;2023-03-15T14:11:06;6.65;;;1.20;;
36009;SDS011;22076;52.182;5.404;2023-03-15T14:13:45;5.38;;;1.02;;
36009;SDS011;22076;52.182;5.404;2023-03-15T14:16:14;6.95;;;1.00;;
36009;SDS011;22076;52.182;5.404;2023-03-15T14:18:41;3.17;;;0.90;;
36009;SDS011;22076;52.182;5.404;2023-03-15T14:21:10;1.67;;;0.77;;
36009;SDS011;22076;52.182;5.404;2023-03-15T14:23:40;2.00;;;0.80;;
36009;SDS011;22076;52.182;5.404;2023-03-15T14:26:10;4.43;;;0.93;;
36009;SDS011;22076;52.182;5.404;2023-03-15T14:28:39;4.60;;;1.35;;
36009;SDS011;22076;52.182;5.404;2023-03-15T14:31:06;2.15;;;1.00;;
36009;SDS011;22076;52.182;5.404;2023-03-15T14:33:35;4.07;;;0.90;;
36009;SDS011;22076;52.182;5.404;2023-03-15T14:36:04;2.13;;;0.85;;
36009;SDS011;22076;52.182;5.404;2023-03-15T14:38:34;5.25;;;1.15;;
36009;SDS011;22076;52.182;5.404;2023-03-15T14:41:16;6.38;;;1.10;;
36009;SDS011;22076;52.182;5.404;2023-03-15T14:43:45;3.92;;;0.90;;
36009;SDS011;22076;52.182;5.404;2023-03-15T14:46:11;4.65;;;0.93;;
36009;SDS011;22076;52.182;5.404;2023-03-15T14:48:38;3.20;;;0.93;;
36009;SDS011;22076;52.182;5.404;2023-03-15T14:51:05;2.97;;;0.93;;
36009;SDS011;22076;52.182;5.404;2023-03-15T14:53:34;3.40;;;0.88;;
36009;SDS011;22076;52.182;5.404;2023-03-15T14:56:01;4.25;;;1.13;;
36009;SDS011;22076;52.182;5.404;2023-03-15T14:58:28;7.13;;;1.40;;
36009;SDS011;22076;52.182;5.404;2023-03-15T15:00:55;2.92;;;0.70;;
36009;SDS011;22076;52.182;5.404;2023-03-15T15:03:26;2.03;;;0.90;;
36009;SDS011;22076;52.182;5.404;2023-03-15T15:05:57;2.72;;;0.80;;
36009;SDS011;22076;52.182;5.404;2023-03-15T15:08:24;2.00;;;0.80;;